sensor_id;sensor_type;location;lat;lon;timestamp;P1;durP1;ratioP1;P2;durP2;ratioP2
33327;SDS011;19692;52.998;9.116;2022-08-19T00:01:30;10.67;;;7.50;;
33327;SDS011;19692;52.998;9.116;2022-08-19T00:03:57;9.27;;;7.40;;
33327;SDS011;19692;52.998;9.116;2022-08-19T00:06:27;7.67;;;6.97;;
33327;SDS011;19692;52.998;9.116;2022-08-19T00:08:54;7.57;;;6.83;;
33327;SDS011;19692;52.998;9.116;2022-08-19T00:11:21;9.33;;;7.20;;
33327;SDS011;19692;52.998;9.116;2022-08-19T00:13:47;7.73;;;6.90;;
33327;SDS011;19692;52.998;9.116;2022-08-19T00:16:15;8.23;;;7.33;;
33327;SDS011;19692;52.998;9.116;2022-08-19T00:18:46;9.70;;;7.27;;
33327;SDS011;19692;52.998;9.116;2022-08-19T00:21:12;8.57;;;6.60;;
33327;SDS011;19692;52.998;9.116;2022-08-19T00:23:39;8.60;;;7.13;;
33327;SDS011;19692;52.998;9.116;2022-08-19T00:26:05;8.30;;;7.33;;
33327;SDS011;19692;52.998;9.116;2022-08-19T00:28:32;8.33;;;7.30;;
33327;SDS011;19692;52.998;9.116;2022-08-19T00:31:00;8.80;;;6.90;;
33327;SDS011;19692;52.998;9.116;2022-08-19T00:33:29;8.63;;;7.73;;
33327;SDS011;19692;52.998;9.116;2022-08-19T00:36:03;8.40;;;7.20;;
33327;SDS011;19692;52.998;9.116;2022-08-19T00:38:32;8.10;;;7.30;;
33327;SDS011;19692;52.998;9.116;2022-08-19T00:40:59;11.40;;;8.23;;
33327;SDS011;19692;52.998;9.116;2022-08-19T00:43:26;10.30;;;8.03;;
33327;SDS011;19692;52.998;9.116;2022-08-19T00:45:53;9.93;;;8.23;;
33327;SDS011;19692;52.998;9.116;2022-08-19T00:48:19;9.83;;;7.80;;
33327;SDS011;19692;52.998;9.116;2022-08-19T00:50:47;10.30;;;7.60;;
33327;SDS011;19692;52.998;9.116;2022-08-19T00:53:16;7.57;;;6.57;;
33327;SDS011;19692;52.998;9.116;2022-08-19T00:55:47;7.77;;;6.97;;
33327;SDS011;19692;52.998;9.116;2022-08-19T00:58:17;10.00;;;7.20;;
33327;SDS011;19692;52.998;9.116;2022-08-19T01:00:46;8.50;;;6.07;;
33327;SDS011;19692;52.998;9.116;2022-08-19T01:03:14;8.70;;;6.73;;
33327;SDS011;19692;52.998;9.116;2022-08-19T01:05:44;7.40;;;6.40;;
33327;SDS011;19692;52.998;9.116;2022-08-19T01:08:11;7.93;;;6.50;;
33327;SDS011;19692;52.998;9.116;2022-08-19T01:10:42;8.37;;;6.00;;
33327;SDS011;19692;52.998;9.116;2022-08-19T01:13:16;7.47;;;6.53;;
33327;SDS011;19692;52.998;9.116;2022-08-19T01:15:46;7.90;;;7.10;;
33327;SDS011;19692;52.998;9.116;2022-08-19T01:18:21;7.57;;;6.47;;
33327;SDS011;19692;52.998;9.116;2022-08-19T01:20:47;7.07;;;6.10;;
33327;SDS011;19692;52.998;9.116;2022-08-19T01:23:14;8.33;;;6.90;;
33327;SDS011;19692;52.998;9.116;2022-08-19T01:25:48;6.77;;;6.17;;
33327;SDS011;19692;52.998;9.116;2022-08-19T01:28:20;8.10;;;6.90;;
33327;SDS011;19692;52.998;9.116;2022-08-19T01:30:52;8.43;;;7.00;;
33327;SDS011;19692;52.998;9.116;2022-08-19T01:33:19;9.17;;;7.33;;
33327;SDS011;19692;52.998;9.116;2022-08-19T01:35:45;10.27;;;8.17;;
33327;SDS011;19692;52.998;9.116;2022-08-19T01:38:19;9.70;;;8.70;;
33327;SDS011;19692;52.998;9.116;2022-08-19T01:40:48;10.90;;;8.87;;
33327;SDS011;19692;52.998;9.116;2022-08-19T01:43:14;10.80;;;8.33;;
33327;SDS011;19692;52.998;9.116;2022-08-19T01:45:40;8.97;;;7.47;;
33327;SDS011;19692;52.998;9.116;2022-08-19T01:48:07;10.80;;;8.50;;
33327;SDS011;19692;52.998;9.116;2022-08-19T01:50:34;9.73;;;8.73;;
33327;SDS011;19692;52.998;9.116;2022-08-19T01:53:01;11.13;;;9.97;;
33327;SDS011;19692;52.998;9.116;2022-08-19T01:55:30;9.63;;;8.57;;
33327;SDS011;19692;52.998;9.116;2022-08-19T01:57:57;10.17;;;9.07;;
33327;SDS011;19692;52.998;9.116;2022-08-19T02:00:26;11.03;;;8.67;;
33327;SDS011;19692;52.998;9.116;2022-08-19T02:02:54;10.13;;;8.37;;
33327;SDS011;19692;52.998;9.116;2022-08-19T02:05:20;9.50;;;7.97;;
33327;SDS011;19692;52.998;9.116;2022-08-19T02:07:46;10.90;;;8.10;;
33327;SDS011;19692;52.998;9.116;2022-08-19T02:10:14;10.13;;;8.23;;
33327;SDS011;19692;52.998;9.116;2022-08-19T02:12:45;10.23;;;8.90;;
33327;SDS011;19692;52.998;9.116;2022-08-19T02:15:12;9.63;;;8.73;;
33327;SDS011;19692;52.998;9.116;2022-08-19T02:17:38;12.33;;;9.73;;
33327;SDS011;19692;52.998;9.116;2022-08-19T02:20:05;13.40;;;10.23;;
33327;SDS011;19692;52.998;9.116;2022-08-19T02:22:32;10.93;;;9.77;;
33327;SDS011;19692;52.998;9.116;2022-08-19T02:24:58;11.13;;;9.80;;
33327;SDS011;19692;52.998;9.116;2022-08-19T02:27:24;12.33;;;10.17;;
33327;SDS011;19692;52.998;9.116;2022-08-19T02:29:50;11.57;;;10.00;;
33327;SDS011;19692;52.998;9.116;2022-08-19T02:32:17;11.70;;;10.37;;
33327;SDS011;19692;52.998;9.116;2022-08-19T02:34:46;13.23;;;10.10;;
33327;SDS011;19692;52.998;9.116;2022-08-19T02:37:13;12.27;;;10.43;;
33327;SDS011;19692;52.998;9.116;2022-08-19T02:39:57;10.63;;;9.47;;
33327;SDS011;19692;52.998;9.116;2022-08-19T02:42:23;13.33;;;10.97;;
33327;SDS011;19692;52.998;9.116;2022-08-19T02:44:49;12.97;;;10.97;;
33327;SDS011;19692;52.998;9.116;2022-08-19T02:47:16;15.63;;;12.03;;
33327;SDS011;19692;52.998;9.116;2022-08-19T02:49:43;11.87;;;10.67;;
33327;SDS011;19692;52.998;9.116;2022-08-19T02:52:10;11.20;;;10.10;;
33327;SDS011;19692;52.998;9.116;2022-08-19T02:54:36;11.60;;;10.33;;
33327;SDS011;19692;52.998;9.116;2022-08-19T02:57:03;12.50;;;9.57;;
33327;SDS011;19692;52.998;9.116;2022-08-19T02:59:30;12.60;;;10.50;;
33327;SDS011;19692;52.998;9.116;2022-08-19T03:01:57;12.50;;;9.53;;
33327;SDS011;19692;52.998;9.116;2022-08-19T03:04:23;11.50;;;10.40;;
33327;SDS011;19692;52.998;9.116;2022-08-19T03:06:49;12.13;;;8.07;;
33327;SDS011;19692;52.998;9.116;2022-08-19T03:09:16;11.83;;;8.20;;
33327;SDS011;19692;52.998;9.116;2022-08-19T03:11:44;8.70;;;7.60;;
33327;SDS011;19692;52.998;9.116;2022-08-19T03:14:10;9.63;;;7.30;;
33327;SDS011;19692;52.998;9.116;2022-08-19T03:16:54;7.77;;;6.67;;
33327;SDS011;19692;52.998;9.116;2022-08-19T03:19:20;7.83;;;6.90;;
33327;SDS011;19692;52.998;9.116;2022-08-19T03:21:46;8.20;;;7.00;;
33327;SDS011;19692;52.998;9.116;2022-08-19T03:24:12;7.43;;;6.67;;
33327;SDS011;19692;52.998;9.116;2022-08-19T03:26:40;7.33;;;6.60;;
33327;SDS011;19692;52.998;9.116;2022-08-19T03:29:10;7.40;;;6.50;;
33327;SDS011;19692;52.998;9.116;2022-08-19T03:31:37;7.80;;;6.27;;
33327;SDS011;19692;52.998;9.116;2022-08-19T03:34:04;6.63;;;5.97;;
33327;SDS011;19692;52.998;9.116;2022-08-19T03:36:30;6.73;;;5.90;;
33327;SDS011;19692;52.998;9.116;2022-08-19T03:38:57;7.37;;;6.50;;
33327;SDS011;19692;52.998;9.116;2022-08-19T03:41:27;8.23;;;6.83;;
33327;SDS011;19692;52.998;9.116;2022-08-19T03:43:56;7.30;;;6.60;;
33327;SDS011;19692;52.998;9.116;2022-08-19T03:46:27;7.83;;;6.93;;
33327;SDS011;19692;52.998;9.116;2022-08-19T03:48:56;9.60;;;8.63;;
33327;SDS011;19692;52.998;9.116;2022-08-19T03:51:28;10.93;;;9.83;;
33327;SDS011;19692;52.998;9.116;2022-08-19T03:53:57;11.40;;;10.30;;
33327;SDS011;19692;52.998;9.116;2022-08-19T03:56:26;12.20;;;10.17;;
33327;SDS011;19692;52.998;9.116;2022-08-19T03:58:53;13.50;;;10.90;;
33327;SDS011;19692;52.998;9.116;2022-08-19T04:01:20;11.33;;;9.93;;
33327;SDS011;19692;52.998;9.116;2022-08-19T04:03:49;10.87;;;9.87;;
33327;SDS011;19692;52.998;9.116;2022-08-19T04:08:56;13.23;;;10.87;;
33327;SDS011;19692;52.998;9.116;2022-08-19T04:11:24;11.40;;;10.30;;
33327;SDS011;19692;52.998;9.116;2022-08-19T04:13:59;11.17;;;10.07;;
33327;SDS011;19692;52.998;9.116;2022-08-19T04:16:25;12.50;;;10.83;;
33327;SDS011;19692;52.998;9.116;2022-08-19T04:18:53;13.43;;;11.70;;
33327;SDS011;19692;52.998;9.116;2022-08-19T04:21:21;13.83;;;12.57;;
33327;SDS011;19692;52.998;9.116;2022-08-19T04:23:49;11.63;;;10.53;;
33327;SDS011;19692;52.998;9.116;2022-08-19T04:26:17;12.70;;;11.43;;
33327;SDS011;19692;52.998;9.116;2022-08-19T04:28:48;11.37;;;9.27;;
33327;SDS011;19692;52.998;9.116;2022-08-19T04:31:21;12.10;;;10.73;;
33327;SDS011;19692;52.998;9.116;2022-08-19T04:33:53;10.57;;;9.57;;
33327;SDS011;19692;52.998;9.116;2022-08-19T04:36:23;11.57;;;9.23;;
33327;SDS011;19692;52.998;9.116;2022-08-19T04:38:56;10.33;;;9.33;;
33327;SDS011;19692;52.998;9.116;2022-08-19T04:41:24;10.00;;;8.00;;
33327;SDS011;19692;52.998;9.116;2022-08-19T04:44:09;10.10;;;9.10;;
33327;SDS011;19692;52.998;9.116;2022-08-19T04:46:36;13.97;;;12.73;;
33327;SDS011;19692;52.998;9.116;2022-08-19T04:49:03;8.53;;;7.73;;
33327;SDS011;19692;52.998;9.116;2022-08-19T04:51:31;8.73;;;7.37;;
33327;SDS011;19692;52.998;9.116;2022-08-19T04:53:58;8.80;;;8.00;;
33327;SDS011;19692;52.998;9.116;2022-08-19T04:56:25;8.87;;;7.97;;
33327;SDS011;19692;52.998;9.116;2022-08-19T04:58:52;9.60;;;8.10;;
33327;SDS011;19692;52.998;9.116;2022-08-19T05:01:21;8.90;;;8.10;;
33327;SDS011;19692;52.998;9.116;2022-08-19T05:03:50;10.03;;;7.83;;
33327;SDS011;19692;52.998;9.116;2022-08-19T05:06:18;9.67;;;8.67;;
33327;SDS011;19692;52.998;9.116;2022-08-19T05:08:46;10.03;;;9.00;;
33327;SDS011;19692;52.998;9.116;2022-08-19T05:11:14;9.70;;;8.70;;
33327;SDS011;19692;52.998;9.116;2022-08-19T05:13:45;8.73;;;7.93;;
33327;SDS011;19692;52.998;9.116;2022-08-19T05:16:14;9.50;;;7.80;;
33327;SDS011;19692;52.998;9.116;2022-08-19T05:18:43;8.63;;;7.67;;
33327;SDS011;19692;52.998;9.116;2022-08-19T05:21:28;8.47;;;7.77;;
33327;SDS011;19692;52.998;9.116;2022-08-19T05:24:13;9.90;;;8.90;;
33327;SDS011;19692;52.998;9.116;2022-08-19T05:26:40;10.10;;;7.87;;
33327;SDS011;19692;52.998;9.116;2022-08-19T05:29:11;8.03;;;7.27;;
33327;SDS011;19692;52.998;9.116;2022-08-19T05:31:39;8.47;;;7.53;;
33327;SDS011;19692;52.998;9.116;2022-08-19T05:34:05;8.90;;;8.00;;
33327;SDS011;19692;52.998;9.116;2022-08-19T05:36:36;8.73;;;7.67;;
33327;SDS011;19692;52.998;9.116;2022-08-19T05:39:06;8.70;;;7.90;;
33327;SDS011;19692;52.998;9.116;2022-08-19T05:41:33;8.80;;;7.63;;
33327;SDS011;19692;52.998;9.116;2022-08-19T05:44:03;9.37;;;8.43;;
33327;SDS011;19692;52.998;9.116;2022-08-19T05:46:34;8.53;;;7.17;;
33327;SDS011;19692;52.998;9.116;2022-08-19T05:49:07;7.60;;;6.90;;
33327;SDS011;19692;52.998;9.116;2022-08-19T05:51:33;7.40;;;5.43;;
33327;SDS011;19692;52.998;9.116;2022-08-19T05:54:02;6.73;;;6.13;;
33327;SDS011;19692;52.998;9.116;2022-08-19T05:56:30;6.80;;;6.20;;
33327;SDS011;19692;52.998;9.116;2022-08-19T05:58:56;7.10;;;6.20;;
33327;SDS011;19692;52.998;9.116;2022-08-19T06:01:23;6.67;;;5.70;;
33327;SDS011;19692;52.998;9.116;2022-08-19T06:03:51;6.20;;;5.60;;
33327;SDS011;19692;52.998;9.116;2022-08-19T06:06:17;7.43;;;6.70;;
33327;SDS011;19692;52.998;9.116;2022-08-19T06:08:44;7.93;;;7.13;;
33327;SDS011;19692;52.998;9.116;2022-08-19T06:13:43;7.53;;;6.80;;
33327;SDS011;19692;52.998;9.116;2022-08-19T06:16:15;8.43;;;7.63;;
33327;SDS011;19692;52.998;9.116;2022-08-19T06:18:47;10.33;;;8.83;;
33327;SDS011;19692;52.998;9.116;2022-08-19T06:21:18;8.53;;;7.73;;
33327;SDS011;19692;52.998;9.116;2022-08-19T06:23:46;9.57;;;8.40;;
33327;SDS011;19692;52.998;9.116;2022-08-19T06:26:12;7.90;;;7.10;;
33327;SDS011;19692;52.998;9.116;2022-08-19T06:28:39;8.37;;;7.57;;
33327;SDS011;19692;52.998;9.116;2022-08-19T06:31:11;8.17;;;7.20;;
33327;SDS011;19692;52.998;9.116;2022-08-19T06:33:51;9.40;;;8.53;;
33327;SDS011;19692;52.998;9.116;2022-08-19T06:36:27;7.63;;;6.93;;
33327;SDS011;19692;52.998;9.116;2022-08-19T06:39:00;8.80;;;7.67;;
33327;SDS011;19692;52.998;9.116;2022-08-19T06:41:37;8.30;;;6.90;;
33327;SDS011;19692;52.998;9.116;2022-08-19T06:44:05;8.10;;;7.30;;
33327;SDS011;19692;52.998;9.116;2022-08-19T06:46:31;10.23;;;7.13;;
33327;SDS011;19692;52.998;9.116;2022-08-19T06:48:58;9.60;;;8.70;;
33327;SDS011;19692;52.998;9.116;2022-08-19T06:51:24;8.73;;;7.73;;
33327;SDS011;19692;52.998;9.116;2022-08-19T06:53:51;8.80;;;7.43;;
33327;SDS011;19692;52.998;9.116;2022-08-19T06:56:20;9.53;;;7.63;;
33327;SDS011;19692;52.998;9.116;2022-08-19T06:58:55;9.17;;;8.37;;
33327;SDS011;19692;52.998;9.116;2022-08-19T07:01:22;8.10;;;7.30;;
33327;SDS011;19692;52.998;9.116;2022-08-19T07:03:48;8.27;;;7.37;;
33327;SDS011;19692;52.998;9.116;2022-08-19T07:06:15;10.37;;;7.83;;
33327;SDS011;19692;52.998;9.116;2022-08-19T07:08:43;10.10;;;8.03;;
33327;SDS011;19692;52.998;9.116;2022-08-19T07:11:12;8.80;;;7.97;;
33327;SDS011;19692;52.998;9.116;2022-08-19T07:13:45;9.63;;;8.63;;
33327;SDS011;19692;52.998;9.116;2022-08-19T07:16:14;9.37;;;7.93;;
33327;SDS011;19692;52.998;9.116;2022-08-19T07:18:43;8.67;;;7.87;;
33327;SDS011;19692;52.998;9.116;2022-08-19T07:21:14;9.17;;;8.00;;
33327;SDS011;19692;52.998;9.116;2022-08-19T07:23:47;9.27;;;8.27;;
33327;SDS011;19692;52.998;9.116;2022-08-19T07:26:16;9.33;;;8.10;;
33327;SDS011;19692;52.998;9.116;2022-08-19T07:28:47;9.37;;;7.83;;
33327;SDS011;19692;52.998;9.116;2022-08-19T07:31:16;7.83;;;7.13;;
33327;SDS011;19692;52.998;9.116;2022-08-19T07:33:48;7.97;;;7.27;;
33327;SDS011;19692;52.998;9.116;2022-08-19T07:36:17;7.47;;;6.40;;
33327;SDS011;19692;52.998;9.116;2022-08-19T07:38:48;7.03;;;5.70;;
33327;SDS011;19692;52.998;9.116;2022-08-19T07:41:17;8.67;;;6.67;;
33327;SDS011;19692;52.998;9.116;2022-08-19T07:43:47;7.67;;;6.97;;
33327;SDS011;19692;52.998;9.116;2022-08-19T07:46:14;8.33;;;7.00;;
33327;SDS011;19692;52.998;9.116;2022-08-19T07:48:41;8.07;;;6.70;;
33327;SDS011;19692;52.998;9.116;2022-08-19T07:51:13;7.53;;;6.00;;
33327;SDS011;19692;52.998;9.116;2022-08-19T07:53:42;6.63;;;6.03;;
33327;SDS011;19692;52.998;9.116;2022-08-19T07:56:10;6.57;;;5.90;;
33327;SDS011;19692;52.998;9.116;2022-08-19T07:58:39;7.47;;;6.23;;
33327;SDS011;19692;52.998;9.116;2022-08-19T08:01:10;7.60;;;6.90;;
33327;SDS011;19692;52.998;9.116;2022-08-19T08:03:40;6.93;;;6.33;;
33327;SDS011;19692;52.998;9.116;2022-08-19T08:06:24;6.90;;;6.30;;
33327;SDS011;19692;52.998;9.116;2022-08-19T08:09:10;6.60;;;5.90;;
33327;SDS011;19692;52.998;9.116;2022-08-19T08:11:45;6.30;;;5.70;;
33327;SDS011;19692;52.998;9.116;2022-08-19T08:14:26;6.00;;;5.47;;
33327;SDS011;19692;52.998;9.116;2022-08-19T08:16:56;7.13;;;5.50;;
33327;SDS011;19692;52.998;9.116;2022-08-19T08:19:23;6.27;;;5.67;;
33327;SDS011;19692;52.998;9.116;2022-08-19T08:21:52;5.77;;;4.90;;
33327;SDS011;19692;52.998;9.116;2022-08-19T08:24:20;7.00;;;4.77;;
33327;SDS011;19692;52.998;9.116;2022-08-19T08:26:46;5.43;;;4.93;;
33327;SDS011;19692;52.998;9.116;2022-08-19T08:29:12;5.43;;;4.90;;
33327;SDS011;19692;52.998;9.116;2022-08-19T08:31:40;5.57;;;5.07;;
33327;SDS011;19692;52.998;9.116;2022-08-19T08:34:08;6.93;;;6.00;;
33327;SDS011;19692;52.998;9.116;2022-08-19T08:36:38;7.20;;;5.90;;
33327;SDS011;19692;52.998;9.116;2022-08-19T08:39:08;36.70;;;7.53;;
33327;SDS011;19692;52.998;9.116;2022-08-19T08:44:32;8.17;;;5.20;;
33327;SDS011;19692;52.998;9.116;2022-08-19T08:47:17;5.20;;;4.70;;
33327;SDS011;19692;52.998;9.116;2022-08-19T08:52:20;5.43;;;4.90;;
33327;SDS011;19692;52.998;9.116;2022-08-19T08:54:52;5.70;;;5.20;;
33327;SDS011;19692;52.998;9.116;2022-08-19T08:59:56;6.23;;;5.63;;
33327;SDS011;19692;52.998;9.116;2022-08-19T09:02:25;5.50;;;5.00;;
33327;SDS011;19692;52.998;9.116;2022-08-19T09:04:51;5.77;;;5.37;;
33327;SDS011;19692;52.998;9.116;2022-08-19T09:07:25;6.47;;;5.83;;
33327;SDS011;19692;52.998;9.116;2022-08-19T09:12:56;5.03;;;4.63;;
33327;SDS011;19692;52.998;9.116;2022-08-19T09:15:42;5.23;;;4.73;;
33327;SDS011;19692;52.998;9.116;2022-08-19T09:18:14;7.60;;;6.10;;
33327;SDS011;19692;52.998;9.116;2022-08-19T09:20:41;5.93;;;5.30;;
33327;SDS011;19692;52.998;9.116;2022-08-19T09:23:08;5.57;;;5.07;;
33327;SDS011;19692;52.998;9.116;2022-08-19T09:25:34;6.00;;;5.50;;
33327;SDS011;19692;52.998;9.116;2022-08-19T09:28:00;6.90;;;6.30;;
33327;SDS011;19692;52.998;9.116;2022-08-19T09:30:32;6.10;;;5.60;;
33327;SDS011;19692;52.998;9.116;2022-08-19T09:33:04;6.80;;;6.10;;
33327;SDS011;19692;52.998;9.116;2022-08-19T09:35:31;6.50;;;5.83;;
33327;SDS011;19692;52.998;9.116;2022-08-19T09:37:57;6.43;;;5.83;;
33327;SDS011;19692;52.998;9.116;2022-08-19T09:40:23;7.77;;;6.93;;
33327;SDS011;19692;52.998;9.116;2022-08-19T09:42:51;6.83;;;6.23;;
33327;SDS011;19692;52.998;9.116;2022-08-19T09:45:18;7.83;;;7.03;;
33327;SDS011;19692;52.998;9.116;2022-08-19T09:47:46;7.80;;;6.77;;
33327;SDS011;19692;52.998;9.116;2022-08-19T09:50:17;6.67;;;5.93;;
33327;SDS011;19692;52.998;9.116;2022-08-19T09:52:43;8.17;;;7.40;;
33327;SDS011;19692;52.998;9.116;2022-08-19T09:55:10;6.83;;;5.93;;
33327;SDS011;19692;52.998;9.116;2022-08-19T09:57:36;7.73;;;6.70;;
33327;SDS011;19692;52.998;9.116;2022-08-19T10:00:03;7.37;;;6.63;;
33327;SDS011;19692;52.998;9.116;2022-08-19T10:02:32;7.57;;;6.37;;
33327;SDS011;19692;52.998;9.116;2022-08-19T10:04:58;8.27;;;7.50;;
33327;SDS011;19692;52.998;9.116;2022-08-19T10:07:56;9.33;;;8.63;;
33327;SDS011;19692;52.998;9.116;2022-08-19T10:10:22;6.80;;;6.10;;
33327;SDS011;19692;52.998;9.116;2022-08-19T10:12:48;7.00;;;6.30;;
33327;SDS011;19692;52.998;9.116;2022-08-19T10:15:15;7.10;;;6.40;;
33327;SDS011;19692;52.998;9.116;2022-08-19T10:17:41;5.73;;;5.10;;
33327;SDS011;19692;52.998;9.116;2022-08-19T10:20:07;6.83;;;6.20;;
33327;SDS011;19692;52.998;9.116;2022-08-19T10:22:34;6.07;;;5.47;;
33327;SDS011;19692;52.998;9.116;2022-08-19T10:25:02;6.50;;;5.90;;
33327;SDS011;19692;52.998;9.116;2022-08-19T10:27:29;7.50;;;5.87;;
33327;SDS011;19692;52.998;9.116;2022-08-19T10:29:56;5.60;;;5.10;;
33327;SDS011;19692;52.998;9.116;2022-08-19T10:32:22;6.90;;;6.27;;
33327;SDS011;19692;52.998;9.116;2022-08-19T10:34:48;8.00;;;7.30;;
33327;SDS011;19692;52.998;9.116;2022-08-19T10:37:15;7.23;;;6.63;;
33327;SDS011;19692;52.998;9.116;2022-08-19T10:39:42;7.20;;;6.40;;
33327;SDS011;19692;52.998;9.116;2022-08-19T10:42:12;9.10;;;8.10;;
33327;SDS011;19692;52.998;9.116;2022-08-19T10:44:39;7.47;;;6.67;;
33327;SDS011;19692;52.998;9.116;2022-08-19T10:47:05;6.20;;;5.40;;
33327;SDS011;19692;52.998;9.116;2022-08-19T10:49:31;5.77;;;5.33;;
33327;SDS011;19692;52.998;9.116;2022-08-19T10:52:17;8.80;;;8.00;;
33327;SDS011;19692;52.998;9.116;2022-08-19T10:55:02;6.87;;;6.27;;
33327;SDS011;19692;52.998;9.116;2022-08-19T10:57:49;6.50;;;5.87;;
33327;SDS011;19692;52.998;9.116;2022-08-19T11:00:16;5.70;;;4.57;;
33327;SDS011;19692;52.998;9.116;2022-08-19T11:02:42;7.47;;;5.90;;
33327;SDS011;19692;52.998;9.116;2022-08-19T11:05:08;4.97;;;4.57;;
33327;SDS011;19692;52.998;9.116;2022-08-19T11:07:38;5.27;;;4.77;;
33327;SDS011;19692;52.998;9.116;2022-08-19T11:10:04;7.50;;;5.90;;
33327;SDS011;19692;52.998;9.116;2022-08-19T11:12:31;6.27;;;5.77;;
33327;SDS011;19692;52.998;9.116;2022-08-19T11:14:58;5.87;;;5.27;;
33327;SDS011;19692;52.998;9.116;2022-08-19T11:17:24;6.47;;;5.90;;
33327;SDS011;19692;52.998;9.116;2022-08-19T11:19:49;5.40;;;4.90;;
33327;SDS011;19692;52.998;9.116;2022-08-19T11:22:15;6.73;;;6.13;;
33327;SDS011;19692;52.998;9.116;2022-08-19T11:24:42;7.07;;;6.57;;
33327;SDS011;19692;52.998;9.116;2022-08-19T11:27:08;5.47;;;4.83;;
33327;SDS011;19692;52.998;9.116;2022-08-19T11:29:35;7.10;;;5.87;;
33327;SDS011;19692;52.998;9.116;2022-08-19T11:32:04;5.53;;;4.93;;
33327;SDS011;19692;52.998;9.116;2022-08-19T11:34:34;4.87;;;4.47;;
33327;SDS011;19692;52.998;9.116;2022-08-19T11:37:00;5.57;;;4.50;;
33327;SDS011;19692;52.998;9.116;2022-08-19T11:39:29;5.10;;;4.20;;
33327;SDS011;19692;52.998;9.116;2022-08-19T11:42:00;6.37;;;4.77;;
33327;SDS011;19692;52.998;9.116;2022-08-19T11:44:48;6.47;;;5.63;;
33327;SDS011;19692;52.998;9.116;2022-08-19T11:47:15;4.80;;;4.20;;
33327;SDS011;19692;52.998;9.116;2022-08-19T11:49:41;5.47;;;4.00;;
33327;SDS011;19692;52.998;9.116;2022-08-19T11:52:07;4.50;;;3.77;;
33327;SDS011;19692;52.998;9.116;2022-08-19T11:54:34;8.83;;;3.90;;
33327;SDS011;19692;52.998;9.116;2022-08-19T11:57:01;3.50;;;3.30;;
33327;SDS011;19692;52.998;9.116;2022-08-19T11:59:28;3.63;;;3.20;;
33327;SDS011;19692;52.998;9.116;2022-08-19T12:01:54;5.30;;;3.43;;
33327;SDS011;19692;52.998;9.116;2022-08-19T12:06:56;5.43;;;4.80;;
33327;SDS011;19692;52.998;9.116;2022-08-19T12:09:22;5.10;;;3.87;;
33327;SDS011;19692;52.998;9.116;2022-08-19T12:11:47;4.03;;;3.30;;
33327;SDS011;19692;52.998;9.116;2022-08-19T12:14:13;2.90;;;2.70;;
33327;SDS011;19692;52.998;9.116;2022-08-19T12:16:39;2.77;;;2.50;;
33327;SDS011;19692;52.998;9.116;2022-08-19T12:19:06;3.07;;;2.50;;
33327;SDS011;19692;52.998;9.116;2022-08-19T12:21:34;4.13;;;3.73;;
33327;SDS011;19692;52.998;9.116;2022-08-19T12:24:00;3.37;;;3.07;;
33327;SDS011;19692;52.998;9.116;2022-08-19T12:26:29;4.70;;;2.90;;
33327;SDS011;19692;52.998;9.116;2022-08-19T12:28:56;3.73;;;2.70;;
33327;SDS011;19692;52.998;9.116;2022-08-19T12:31:24;2.40;;;2.20;;
33327;SDS011;19692;52.998;9.116;2022-08-19T12:33:56;2.33;;;2.13;;
33327;SDS011;19692;52.998;9.116;2022-08-19T12:36:22;2.03;;;1.93;;
33327;SDS011;19692;52.998;9.116;2022-08-19T12:38:53;2.87;;;2.30;;
33327;SDS011;19692;52.998;9.116;2022-08-19T12:41:19;2.70;;;2.50;;
33327;SDS011;19692;52.998;9.116;2022-08-19T12:43:47;4.50;;;2.47;;
33327;SDS011;19692;52.998;9.116;2022-08-19T12:46:14;2.40;;;2.20;;
33327;SDS011;19692;52.998;9.116;2022-08-19T12:48:41;3.17;;;2.20;;
33327;SDS011;19692;52.998;9.116;2022-08-19T12:51:11;3.63;;;2.20;;
33327;SDS011;19692;52.998;9.116;2022-08-19T12:53:40;3.27;;;1.90;;
33327;SDS011;19692;52.998;9.116;2022-08-19T12:56:07;2.30;;;2.10;;
33327;SDS011;19692;52.998;9.116;2022-08-19T12:58:35;2.27;;;2.07;;
33327;SDS011;19692;52.998;9.116;2022-08-19T13:01:09;3.20;;;2.40;;
33327;SDS011;19692;52.998;9.116;2022-08-19T13:03:41;2.30;;;2.10;;
33327;SDS011;19692;52.998;9.116;2022-08-19T13:06:08;3.97;;;2.97;;
33327;SDS011;19692;52.998;9.116;2022-08-19T13:08:34;3.03;;;2.00;;
33327;SDS011;19692;52.998;9.116;2022-08-19T13:11:08;3.70;;;2.83;;
33327;SDS011;19692;52.998;9.116;2022-08-19T13:13:42;2.47;;;2.27;;
33327;SDS011;19692;52.998;9.116;2022-08-19T13:16:11;3.03;;;2.73;;
33327;SDS011;19692;52.998;9.116;2022-08-19T13:18:38;4.63;;;2.20;;
33327;SDS011;19692;52.998;9.116;2022-08-19T13:21:07;2.87;;;2.27;;
33327;SDS011;19692;52.998;9.116;2022-08-19T13:23:38;3.87;;;2.13;;
33327;SDS011;19692;52.998;9.116;2022-08-19T13:26:05;2.30;;;2.10;;
33327;SDS011;19692;52.998;9.116;2022-08-19T13:28:34;2.03;;;1.83;;
33327;SDS011;19692;52.998;9.116;2022-08-19T13:31:19;2.93;;;2.70;;
33327;SDS011;19692;52.998;9.116;2022-08-19T13:34:06;4.77;;;2.40;;
33327;SDS011;19692;52.998;9.116;2022-08-19T13:36:33;2.77;;;2.00;;
33327;SDS011;19692;52.998;9.116;2022-08-19T13:38:59;2.53;;;2.20;;
33327;SDS011;19692;52.998;9.116;2022-08-19T13:41:26;3.93;;;2.67;;
33327;SDS011;19692;52.998;9.116;2022-08-19T13:43:52;2.83;;;2.23;;
33327;SDS011;19692;52.998;9.116;2022-08-19T13:48:58;3.20;;;2.07;;
33327;SDS011;19692;52.998;9.116;2022-08-19T13:51:42;3.50;;;2.50;;
33327;SDS011;19692;52.998;9.116;2022-08-19T13:54:20;3.07;;;2.50;;
33327;SDS011;19692;52.998;9.116;2022-08-19T13:57:13;2.27;;;1.93;;
33327;SDS011;19692;52.998;9.116;2022-08-19T14:00:04;2.77;;;2.00;;
33327;SDS011;19692;52.998;9.116;2022-08-19T14:02:40;2.00;;;1.90;;
33327;SDS011;19692;52.998;9.116;2022-08-19T14:05:26;3.30;;;2.10;;
33327;SDS011;19692;52.998;9.116;2022-08-19T14:08:24;2.33;;;2.10;;
33327;SDS011;19692;52.998;9.116;2022-08-19T14:11:08;2.10;;;1.90;;
33327;SDS011;19692;52.998;9.116;2022-08-19T14:14:17;2.27;;;2.07;;
33327;SDS011;19692;52.998;9.116;2022-08-19T14:16:42;5.37;;;2.20;;
33327;SDS011;19692;52.998;9.116;2022-08-19T14:19:32;3.97;;;1.93;;
33327;SDS011;19692;52.998;9.116;2022-08-19T14:21:58;2.40;;;2.20;;
33327;SDS011;19692;52.998;9.116;2022-08-19T14:24:24;5.77;;;4.23;;
33327;SDS011;19692;52.998;9.116;2022-08-19T14:26:53;2.40;;;2.20;;
33327;SDS011;19692;52.998;9.116;2022-08-19T14:29:19;2.80;;;2.60;;
33327;SDS011;19692;52.998;9.116;2022-08-19T14:34:42;2.90;;;2.20;;
33327;SDS011;19692;52.998;9.116;2022-08-19T14:37:10;3.07;;;2.00;;
33327;SDS011;19692;52.998;9.116;2022-08-19T14:39:43;2.80;;;1.70;;
33327;SDS011;19692;52.998;9.116;2022-08-19T14:42:13;2.40;;;1.70;;
33327;SDS011;19692;52.998;9.116;2022-08-19T14:45:01;2.50;;;1.93;;
33327;SDS011;19692;52.998;9.116;2022-08-19T14:48:07;3.17;;;1.87;;
33327;SDS011;19692;52.998;9.116;2022-08-19T14:50:42;1.50;;;1.40;;
33327;SDS011;19692;52.998;9.116;2022-08-19T14:53:33;1.70;;;1.60;;
33327;SDS011;19692;52.998;9.116;2022-08-19T14:56:06;2.33;;;1.40;;
33327;SDS011;19692;52.998;9.116;2022-08-19T14:59:01;1.70;;;1.60;;
33327;SDS011;19692;52.998;9.116;2022-08-19T15:01:50;1.43;;;1.33;;
33327;SDS011;19692;52.998;9.116;2022-08-19T15:04:26;1.57;;;1.40;;
33327;SDS011;19692;52.998;9.116;2022-08-19T15:06:59;1.20;;;1.10;;
33327;SDS011;19692;52.998;9.116;2022-08-19T15:09:33;2.60;;;1.30;;
33327;SDS011;19692;52.998;9.116;2022-08-19T15:12:05;1.40;;;1.30;;
33327;SDS011;19692;52.998;9.116;2022-08-19T15:14:38;1.40;;;1.30;;
33327;SDS011;19692;52.998;9.116;2022-08-19T15:17:07;1.50;;;1.40;;
33327;SDS011;19692;52.998;9.116;2022-08-19T15:19:35;1.63;;;1.50;;
33327;SDS011;19692;52.998;9.116;2022-08-19T15:22:11;2.53;;;1.60;;
33327;SDS011;19692;52.998;9.116;2022-08-19T15:24:54;2.37;;;2.17;;